Time;durP1;ratioP1;P1;durP2;ratioP2;P2;SDS_P1;SDS_P2;PMS_P1;PMS_P2;Temp;Humidity;BMP_temperature;BMP_pressure;BME280_temperature;BME280_humidity;BME280_pressure;Samples;Min_cycle;Max_cycle;Signal;HPM_P1;HPM_P2
2021/01/14 00:00:49;;;;;;;16.77;10.80;;;;;;;-1.40;70.94;99788.73;1722487;82;21081;-81
2021/01/14 00:03:18;;;;;;;18.77;11.40;;;;;;;-1.40;70.92;99784.00;1716429;82;21603;-83
2021/01/14 00:05:48;;;;;;;15.23;9.98;;;;;;;-1.36;70.97;99783.89;1782984;79;21167;-82
2021/01/14 00:08:17;;;;;;;16.30;10.00;;;;;;;-1.35;70.98;99773.19;1759520;79;20963;-81
2021/01/14 00:10:45;;;;;;;15.95;10.15;;;;;;;-1.33;70.81;99770.97;1718987;82;21057;-81
2021/01/14 00:13:13;;;;;;;15.05;10.15;;;;;;;-1.32;70.73;99767.95;1716839;82;20951;-82
2021/01/14 00:15:42;;;;;;;14.00;9.13;;;;;;;-1.33;70.63;99773.99;1716382;82;20967;-81
2021/01/14 00:18:12;;;;;;;16.45;10.18;;;;;;;-1.30;70.75;99781.17;1745701;80;21390;-79
2021/01/14 00:20:40;;;;;;;14.73;9.48;;;;;;;-1.29;70.57;99778.16;1782844;79;20973;-80
2021/01/14 00:23:08;;;;;;;17.35;9.88;;;;;;;-1.25;70.37;99774.63;1782670;79;20919;-80
2021/01/14 00:25:36;;;;;;;15.08;9.23;;;;;;;-1.26;70.33;99771.66;1782896;79;20915;-81
2021/01/14 00:28:05;;;;;;;15.10;9.93;;;;;;;-1.26;70.09;99782.79;1782981;79;21049;-80
2021/01/14 00:30:33;;;;;;;14.78;10.93;;;;;;;-1.30;69.83;99776.03;1783616;79;21183;-81
2021/01/14 00:33:01;;;;;;;15.15;10.38;;;;;;;-1.32;69.92;99771.81;1746139;80;21456;-80
2021/01/14 00:35:29;;;;;;;13.68;9.20;;;;;;;-1.33;69.89;99776.12;1716046;82;21520;-84
2021/01/14 00:37:57;;;;;;;15.32;10.05;;;;;;;-1.34;69.92;99772.29;1782934;79;21038;-83
2021/01/14 00:40:31;;;;;;;19.90;11.73;;;;;;;-1.32;69.94;99767.95;1716085;82;21523;-80
2021/01/14 00:43:04;;;;;;;18.20;10.65;;;;;;;-1.31;69.96;99773.06;1722683;82;21895;-81
2021/01/14 00:45:33;;;;;;;14.83;9.88;;;;;;;-1.29;69.80;99770.02;1740449;82;20928;-81
2021/01/14 00:48:02;;;;;;;15.30;9.83;;;;;;;-1.28;69.80;99766.55;1745528;80;21393;-80
2021/01/14 00:50:30;;;;;;;16.55;10.43;;;;;;;-1.32;69.69;99757.22;1716066;82;20971;-81
2021/01/14 00:52:58;;;;;;;16.77;11.22;;;;;;;-1.36;69.81;99759.45;1785433;78;20986;-81
2021/01/14 00:55:26;;;;;;;17.42;10.85;;;;;;;-1.37;69.76;99762.09;1723319;82;21181;-80
2021/01/14 00:57:54;;;;;;;15.15;10.72;;;;;;;-1.36;69.69;99771.03;1737404;81;21553;-81
2021/01/14 01:00:23;;;;;;;20.35;12.03;;;;;;;-1.35;69.82;99775.31;1748668;82;20955;-81
2021/01/14 01:02:52;;;;;;;18.42;11.00;;;;;;;-1.35;69.81;99774.02;1737621;81;21535;-79
2021/01/14 01:05:20;;;;;;;19.70;11.43;;;;;;;-1.31;69.77;99765.80;1748397;81;20947;-81
2021/01/14 01:07:59;;;;;;;17.60;11.18;;;;;;;-1.33;69.70;99770.97;1737687;81;21025;-81
2021/01/14 01:10:27;;;;;;;21.23;12.85;;;;;;;-1.29;69.70;99775.16;1723429;82;20947;-81
2021/01/14 01:12:57;;;;;;;19.40;11.50;;;;;;;-1.29;69.80;99776.86;1737471;81;21029;-82
2021/01/14 01:15:26;;;;;;;14.20;9.73;;;;;;;-1.27;69.81;99791.41;1748837;82;21058;-80
2021/01/14 01:17:54;;;;;;;17.15;9.60;;;;;;;-1.25;69.76;99796.48;1753494;80;20967;-81
2021/01/14 01:20:22;;;;;;;15.80;11.08;;;;;;;-1.24;69.76;99794.33;1748420;82;21090;-81
2021/01/14 01:22:57;;;;;;;17.00;10.80;;;;;;;-1.19;69.55;99793.77;1753451;80;20979;-82
2021/01/14 01:25:26;;;;;;;19.02;12.10;;;;;;;-1.19;69.51;99789.91;1749214;81;21041;-79
2021/01/14 01:27:54;;;;;;;17.27;10.58;;;;;;;-1.19;69.19;99785.22;1738785;81;20954;-81
2021/01/14 01:30:21;;;;;;;23.27;14.33;;;;;;;-1.23;68.94;99790.87;1724011;82;21034;-80
2021/01/14 01:32:50;;;;;;;17.20;13.50;;;;;;;-1.29;69.08;99797.44;1737704;81;20978;-78
2021/01/14 01:35:18;;;;;;;16.55;10.48;;;;;;;-1.33;69.43;99806.98;1748537;81;21018;-83
2021/01/14 01:37:46;;;;;;;17.00;11.95;;;;;;;-1.34;69.54;99807.00;1737547;81;21543;-80
2021/01/14 01:40:15;;;;;;;17.35;10.28;;;;;;;-1.29;69.62;99817.59;1748348;82;20932;-81
2021/01/14 01:42:42;;;;;;;14.68;10.48;;;;;;;-1.24;69.65;99820.05;1737558;81;20919;-80
2021/01/14 01:45:12;;;;;;;14.78;9.83;;;;;;;-1.19;69.68;99824.63;1748387;81;21172;-80
2021/01/14 01:47:41;;;;;;;16.27;11.45;;;;;;;-1.16;69.52;99830.98;1753208;80;20958;-82
2021/01/14 01:50:09;;;;;;;14.65;10.00;;;;;;;-1.12;69.40;99831.31;1748596;81;21026;-82
2021/01/14 01:52:38;;;;;;;15.48;9.33;;;;;;;-1.09;69.59;99828.69;1722510;82;21094;-82
2021/01/14 01:55:07;;;;;;;15.18;9.78;;;;;;;-1.06;69.59;99829.88;1783199;79;21021;-82
2021/01/14 01:57:35;;;;;;;15.78;10.72;;;;;;;-1.01;69.45;99831.05;1757816;79;21165;-81
2021/01/14 02:00:05;;;;;;;15.23;10.98;;;;;;;-1.00;69.28;99844.75;1745793;80;20951;-82
2021/01/14 02:02:33;;;;;;;15.70;11.03;;;;;;;-1.00;69.16;99849.89;1783215;79;21361;-79
2021/01/14 02:05:01;;;;;;;19.80;12.07;;;;;;;-1.02;69.26;99852.53;1715921;82;20931;-77
2021/01/14 02:08:19;;;;;;;18.17;11.48;;;;;;;-1.03;69.39;99848.70;1722559;82;21441;-81
2021/01/14 02:11:05;;;;;;;24.60;12.70;;;;;;;-1.04;69.33;99849.15;1715959;82;21078;-79
2021/01/14 02:14:20;;;;;;;23.25;15.03;;;;;;;-1.04;69.12;99842.72;1782999;79;21349;-80
2021/01/14 02:16:50;;;;;;;19.60;12.55;;;;;;;-1.03;69.12;99851.27;1809655;79;21408;-81
2021/01/14 02:19:29;;;;;;;21.17;13.25;;;;;;;-1.03;69.05;99846.97;1721596;80;21043;-79
2021/01/14 02:22:01;;;;;;;18.65;12.50;;;;;;;-1.03;69.18;99849.98;1783005;79;21045;-80
2021/01/14 02:24:44;;;;;;;19.17;13.68;;;;;;;-1.02;69.02;99846.09;1771322;80;21168;-80
2021/01/14 02:27:12;;;;;;;23.18;14.53;;;;;;;-1.03;68.98;99853.84;1782996;79;21034;-78
2021/01/14 02:29:41;;;;;;;24.35;14.93;;;;;;;-1.05;69.11;99852.59;1783549;79;20918;-77
2021/01/14 02:32:16;;;;;;;23.10;13.60;;;;;;;-1.03;69.07;99846.97;1722185;80;21034;-78
2021/01/14 02:34:44;;;;;;;17.17;11.43;;;;;;;-1.06;69.12;99847.89;1784239;79;20958;-81
2021/01/14 02:37:13;;;;;;;21.12;13.38;;;;;;;-1.07;69.21;99850.08;1717306;82;22325;-78
2021/01/14 02:39:41;;;;;;;16.00;11.80;;;;;;;-1.09;69.26;99847.11;1722970;82;21228;-77
2021/01/14 02:42:09;;;;;;;15.83;10.75;;;;;;;-1.13;69.29;99844.23;1716339;82;21040;-82
2021/01/14 02:44:37;;;;;;;18.60;10.95;;;;;;;-1.11;69.46;99851.45;1745754;80;21039;-78
2021/01/14 02:47:05;;;;;;;16.20;11.18;;;;;;;-1.12;69.57;99857.48;1783034;79;21085;-80
2021/01/14 02:49:39;;;;;;;16.30;10.90;;;;;;;-1.15;69.41;99857.58;1716667;82;22552;-82
2021/01/14 02:52:08;;;;;;;19.30;11.08;;;;;;;-1.19;69.50;99864.95;1766348;80;21014;-82
2021/01/14 02:54:35;;;;;;;16.35;11.10;;;;;;;-1.24;69.66;99868.92;1791814;78;20922;-81
2021/01/14 02:57:04;;;;;;;15.90;10.60;;;;;;;-1.26;69.77;99859.95;1730319;80;20947;-80
2021/01/14 02:59:32;;;;;;;15.00;10.32;;;;;;;-1.30;69.90;99854.92;1702222;82;20963;-81
2021/01/14 03:02:00;;;;;;;17.98;11.08;;;;;;;-1.31;69.96;99862.25;1737586;81;21202;-80
2021/01/14 03:04:27;;;;;;;20.77;12.37;;;;;;;-1.34;70.16;99859.28;1723426;82;21057;-82
2021/01/14 03:06:55;;;;;;;15.23;10.32;;;;;;;-1.37;70.33;99861.94;1737428;81;21613;-80
2021/01/14 03:09:24;;;;;;;16.67;10.90;;;;;;;-1.38;70.45;99862.83;1748216;82;20963;-81
2021/01/14 03:11:52;;;;;;;16.27;10.80;;;;;;;-1.42;70.61;99859.92;1737539;81;20962;-81
2021/01/14 03:14:20;;;;;;;19.00;12.13;;;;;;;-1.44;70.72;99859.55;1748288;81;22168;-80
2021/01/14 03:16:48;;;;;;;22.87;13.95;;;;;;;-1.46;70.86;99862.16;1737648;81;21407;-80
2021/01/14 03:19:19;;;;;;;18.40;12.07;;;;;;;-1.47;71.11;99850.16;1748354;82;21579;-80
2021/01/14 03:21:49;;;;;;;21.48;12.50;;;;;;;-1.46;71.07;99841.58;1737534;81;21021;-80
2021/01/14 03:24:18;;;;;;;21.00;14.10;;;;;;;-1.46;71.13;99848.01;1723375;82;20955;-80
2021/01/14 03:26:45;;;;;;;21.93;13.85;;;;;;;-1.48;71.15;99845.91;1737538;81;21076;-81
2021/01/14 03:29:13;;;;;;;26.12;16.57;;;;;;;-1.51;71.26;99835.27;1748215;82;20970;-80
2021/01/14 03:31:42;;;;;;;24.57;16.80;;;;;;;-1.52;71.38;99836.58;1737460;81;20962;-79
2021/01/14 03:34:10;;;;;;;27.73;16.37;;;;;;;-1.51;71.38;99839.13;1723498;82;20959;-80
2021/01/14 03:36:56;;;;;;;22.05;15.78;;;;;;;-1.55;71.53;99837.50;1737642;81;21062;-83
2021/01/14 03:39:09;;;;;;;25.02;16.02;;;;;;;-1.55;71.65;99842.64;1720243;82;21058;-80
2021/01/14 03:41:38;;;;;;;22.37;14.87;;;;;;;-1.56;71.73;99849.09;1737836;81;21014;-80
2021/01/14 03:44:06;;;;;;;25.23;16.70;;;;;;;-1.56;71.80;99850.38;1700151;82;21048;-80
2021/01/14 03:46:34;;;;;;;27.77;15.72;;;;;;;-1.57;71.81;99858.98;1737822;81;20951;-80
2021/01/14 03:49:02;;;;;;;18.25;13.08;;;;;;;-1.60;71.95;99854.76;1751253;82;20986;-81
2021/01/14 03:51:31;;;;;;;25.37;14.25;;;;;;;-1.56;71.99;99852.95;1740962;81;21032;-80
2021/01/14 03:53:59;;;;;;;23.15;14.90;;;;;;;-1.57;72.13;99857.25;1749065;80;21038;-82
2021/01/14 03:56:28;;;;;;;25.77;15.43;;;;;;;-1.55;72.15;99864.94;1707801;82;21486;-80
2021/01/14 03:58:56;;;;;;;23.90;15.00;;;;;;;-1.53;72.17;99858.03;1708423;82;21039;-79
2021/01/14 04:01:24;;;;;;;20.50;13.83;;;;;;;-1.52;72.15;99861.84;1708779;82;20940;-81
2021/01/14 04:03:52;;;;;;;23.10;15.15;;;;;;;-1.50;72.05;99863.09;1707233;82;21191;-79
2021/01/14 04:06:20;;;;;;;39.85;23.40;;;;;;;-1.53;72.17;99859.32;1706229;82;20980;-81
2021/01/14 04:08:48;;;;;;;23.25;15.75;;;;;;;-1.53;72.07;99861.89;1706201;82;21469;-79
2021/01/14 04:11:15;;;;;;;22.00;14.75;;;;;;;-1.59;72.03;99861.58;1706084;82;21067;-80
2021/01/14 04:13:44;;;;;;;23.95;15.65;;;;;;;-1.62;72.18;99868.50;1706247;82;20944;-79
2021/01/14 04:16:12;;;;;;;26.48;16.60;;;;;;;-1.64;72.25;99865.98;1706121;82;21398;-80
2021/01/14 04:18:41;;;;;;;23.52;14.75;;;;;;;-1.68;72.26;99866.92;1706080;82;20969;-82
2021/01/14 04:21:09;;;;;;;23.35;15.35;;;;;;;-1.67;72.35;99866.03;1706087;82;21024;-78
2021/01/14 04:23:37;;;;;;;26.68;16.97;;;;;;;-1.64;72.38;99867.27;1706028;82;21079;-80
2021/01/14 04:26:06;;;;;;;26.90;16.65;;;;;;;-1.60;72.30;99868.90;1706048;82;21114;-79
2021/01/14 04:28:34;;;;;;;26.62;16.45;;;;;;;-1.59;72.23;99870.58;1706068;82;20999;-80
2021/01/14 04:31:02;;;;;;;25.95;17.75;;;;;;;-1.57;72.29;99871.84;1705886;82;20996;-79
2021/01/14 04:33:31;;;;;;;28.50;17.20;;;;;;;-1.51;72.24;99878.13;1706007;82;20980;-78
2021/01/14 04:36:00;;;;;;;29.07;17.77;;;;;;;-1.50;72.17;99874.67;1706026;82;21011;-80
2021/01/14 04:38:29;;;;;;;29.80;18.50;;;;;;;-1.48;72.06;99873.75;1706230;82;21024;-79
2021/01/14 04:41:03;;;;;;;28.27;16.45;;;;;;;-1.45;71.84;99883.11;1706068;82;21198;-80
2021/01/14 04:43:33;;;;;;;27.93;17.05;;;;;;;-1.51;71.87;99875.56;1735594;82;20930;-81
2021/01/14 04:46:06;;;;;;;29.35;19.30;;;;;;;-1.53;71.84;99879.89;1706260;82;21085;-82
2021/01/14 04:48:45;;;;;;;29.87;19.12;;;;;;;-1.61;72.01;99873.62;1706090;82;20965;-81
2021/01/14 04:51:18;;;;;;;39.23;23.60;;;;;;;-1.65;72.25;99873.27;1705022;82;21377;-83
2021/01/14 04:53:49;;;;;;;38.42;23.40;;;;;;;-1.66;72.50;99867.73;1711897;81;21041;-81
2021/01/14 04:56:18;;;;;;;33.88;19.70;;;;;;;-1.68;72.64;99874.19;1725920;81;21073;-81
2021/01/14 04:58:48;;;;;;;39.88;22.48;;;;;;;-1.68;72.77;99864.36;1726545;81;21022;-84
2021/01/14 05:01:22;;;;;;;38.60;22.13;;;;;;;-1.72;72.83;99871.72;1726847;81;21093;-80
2021/01/14 05:03:51;;;;;;;40.85;21.75;;;;;;;-1.77;72.85;99869.70;1729361;81;21448;-79
2021/01/14 05:06:24;;;;;;;35.15;21.55;;;;;;;-1.84;73.10;99872.84;1735009;81;21355;-82
2021/01/14 05:09:04;;;;;;;35.58;23.18;;;;;;;-1.86;73.27;99868.62;1697665;83;20995;-82
2021/01/14 05:11:44;;;;;;;35.95;21.15;;;;;;;-1.88;73.38;99867.36;1696896;83;20987;-83
2021/01/14 05:14:12;;;;;;;35.48;21.73;;;;;;;-1.90;73.48;99860.12;1692669;83;20982;-81
2021/01/14 05:16:40;;;;;;;43.70;22.42;;;;;;;-1.89;73.58;99867.80;1697632;83;21022;-83
2021/01/14 05:19:08;;;;;;;37.28;21.25;;;;;;;-1.91;73.60;99881.56;1674210;83;21249;-81
2021/01/14 05:21:37;;;;;;;37.45;21.75;;;;;;;-1.90;73.73;99881.96;1697214;83;21452;-83
2021/01/14 05:24:14;;;;;;;33.75;19.95;;;;;;;-1.92;73.70;99883.27;1697154;83;20998;-83
2021/01/14 05:26:45;;;;;;;34.13;20.92;;;;;;;-1.92;73.80;99890.14;1696979;83;20987;-83
2021/01/14 05:29:19;;;;;;;33.30;21.17;;;;;;;-1.92;73.84;99895.27;1696969;83;20971;-81
2021/01/14 05:31:49;;;;;;;36.05;20.45;;;;;;;-1.94;73.89;99902.16;1696950;83;21606;-82
2021/01/14 05:34:17;;;;;;;37.93;21.27;;;;;;;-1.92;73.86;99902.53;1696783;83;21049;-82
2021/01/14 05:37:05;;;;;;;37.30;23.27;;;;;;;-1.91;73.85;99905.53;1696820;83;20999;-82
2021/01/14 05:39:42;;;;;;;38.45;23.20;;;;;;;-1.90;73.81;99903.80;1696796;83;21002;-82
2021/01/14 05:42:10;;;;;;;44.77;25.20;;;;;;;-1.88;73.79;99913.61;1697177;83;21010;-83
2021/01/14 05:44:44;;;;;;;47.67;25.75;;;;;;;-1.89;73.87;99928.60;1696655;83;21079;-82
2021/01/14 05:47:24;;;;;;;41.80;24.65;;;;;;;-1.90;73.97;99931.62;1696720;83;21018;-80
2021/01/14 05:50:04;;;;;;;39.20;24.72;;;;;;;-1.89;73.97;99930.76;1696571;83;20970;-82
2021/01/14 05:53:02;;;;;;;43.68;25.92;;;;;;;-1.82;73.99;99922.90;1846757;77;25746;-81
2021/01/14 05:55:30;;;;;;;51.77;29.02;;;;;;;-1.88;73.98;99926.01;1783447;78;20998;-80
2021/01/14 05:58:01;;;;;;;45.08;26.93;;;;;;;-1.83;73.91;99921.22;1668461;82;21063;-82
2021/01/14 06:00:37;;;;;;;49.38;29.42;;;;;;;-1.82;73.96;99923.77;1745855;81;21474;-82
2021/01/14 06:03:29;;;;;;;48.10;28.00;;;;;;;-1.78;73.96;99920.68;1713078;82;20976;-80
2021/01/14 06:05:58;;;;;;;54.93;30.68;;;;;;;-1.72;73.98;99921.39;1712923;82;21395;-80
2021/01/14 06:08:29;;;;;;;48.38;28.17;;;;;;;-1.68;73.85;99929.45;1712757;82;21083;-80
2021/01/14 06:10:58;;;;;;;51.40;28.07;;;;;;;-1.65;73.74;99928.54;1712664;82;21138;-81
2021/01/14 06:13:39;;;;;;;47.03;27.13;;;;;;;-1.68;73.66;99930.73;1712782;82;21554;-80
2021/01/14 06:16:11;;;;;;;43.55;25.68;;;;;;;-1.71;73.60;99930.81;1712971;82;21077;-80
2021/01/14 06:18:39;;;;;;;45.48;26.50;;;;;;;-1.73;73.70;99940.73;1712714;81;21129;-81
2021/01/14 06:21:10;;;;;;;45.90;26.97;;;;;;;-1.76;73.80;99939.04;1712922;82;21593;-81
2021/01/14 06:23:46;;;;;;;47.43;27.32;;;;;;;-1.74;73.84;99946.28;1712926;82;22938;-82
2021/01/14 06:26:27;;;;;;;44.48;25.95;;;;;;;-1.73;73.86;99952.29;1713932;82;20976;-80
2021/01/14 06:28:55;;;;;;;45.90;27.27;;;;;;;-1.72;73.81;99956.09;1712785;82;20968;-82
2021/01/14 06:31:27;;;;;;;49.98;28.30;;;;;;;-1.70;73.86;99956.07;1712872;81;21096;-85
2021/01/14 06:34:02;;;;;;;44.83;27.90;;;;;;;-1.68;73.87;99953.03;1713168;82;20944;-83
2021/01/14 06:36:33;;;;;;;48.20;29.75;;;;;;;-1.59;73.84;99945.58;1714124;81;22647;-82
2021/01/14 06:39:10;;;;;;;43.85;26.85;;;;;;;-1.55;73.69;99951.90;1712710;82;21140;-80
2021/01/14 06:41:42;;;;;;;47.58;28.30;;;;;;;-1.50;73.48;99952.64;1713848;81;21095;-78
2021/01/14 06:44:13;;;;;;;47.60;27.55;;;;;;;-1.47;73.35;99948.73;1712737;82;20948;-79
2021/01/14 06:46:44;;;;;;;47.62;29.65;;;;;;;-1.47;73.26;99944.88;1713195;82;20984;-79
2021/01/14 06:49:16;;;;;;;53.87;31.15;;;;;;;-1.44;73.08;99955.98;1713152;81;21859;-79
2021/01/14 06:51:54;;;;;;;51.37;30.08;;;;;;;-1.44;73.09;99953.41;1713130;82;20964;-82
2021/01/14 06:54:34;;;;;;;57.00;31.97;;;;;;;-1.42;73.02;99950.34;1713586;81;21032;-82
2021/01/14 06:57:14;;;;;;;54.83;31.52;;;;;;;-1.37;73.02;99953.23;1712684;82;21046;-83
2021/01/14 06:59:43;;;;;;;62.70;34.95;;;;;;;-1.29;72.98;99955.62;1712892;82;21379;-81
2021/01/14 07:02:38;;;;;;;63.52;35.88;;;;;;;-1.22;72.87;99955.91;1712620;82;21028;-80
2021/01/14 07:05:06;;;;;;;61.25;36.83;;;;;;;-1.13;72.71;99960.00;1713851;81;21068;-82
2021/01/14 07:07:48;;;;;;;65.70;39.23;;;;;;;-1.08;72.66;99958.16;1712410;82;21070;-81
2021/01/14 07:10:16;;;;;;;62.78;37.23;;;;;;;-1.02;72.57;99960.60;1712275;82;20964;-81
2021/01/14 07:12:45;;;;;;;62.35;35.20;;;;;;;-0.98;72.41;99955.77;1712057;82;21106;-81
2021/01/14 07:15:18;;;;;;;51.33;31.40;;;;;;;-0.97;72.20;99952.77;1745044;81;20944;-82
2021/01/14 07:18:00;;;;;;;;;;;;;;;-0.95;72.08;99954.42;1715228;82;21545;-83
2021/01/14 07:20:26;;;;;;;56.73;31.37;;;;;;;-0.97;71.97;99962.62;1714455;82;20395;-84
2021/01/14 07:23:00;;;;;;;59.93;34.38;;;;;;;-0.96;71.83;99964.74;1757533;81;21160;-82
2021/01/14 07:25:32;;;;;;;60.75;32.05;;;;;;;-0.98;71.85;99972.94;1743676;80;21038;-82
2021/01/14 07:28:00;;;;;;;51.00;30.40;;;;;;;-0.97;71.81;99975.48;1697176;80;21016;-83
2021/01/14 07:30:32;;;;;;;60.38;32.58;;;;;;;-0.97;71.71;99979.80;1740581;80;21034;-83
2021/01/14 07:33:27;;;;;;;53.98;30.62;;;;;;;-0.93;71.82;99986.12;1853670;77;25083;-80
2021/01/14 07:36:00;;;;;;;;;;;;;;;-0.95;71.67;99993.02;1796514;78;21420;-83
2021/01/14 07:38:38;;;;;;;54.95;32.42;;;;;;;-0.92;71.65;99993.39;1820746;78;21388;-84
2021/01/14 07:41:08;;;;;;;75.32;40.75;;;;;;;-0.86;71.66;99992.81;1793851;78;20990;-82
2021/01/14 07:43:45;;;;;;;60.28;34.40;;;;;;;-0.79;71.40;99999.11;1795966;78;20938;-83
2021/01/14 07:46:23;;;;;;;48.28;28.30;;;;;;;-0.74;71.00;99995.52;1827285;78;21333;-83
2021/01/14 07:48:58;;;;;;;49.15;28.12;;;;;;;-0.76;70.69;99996.45;1794708;78;20950;-84
2021/01/14 07:51:48;;;;;;;48.70;29.67;;;;;;;-0.79;70.67;99997.81;1794276;78;22200;-82
2021/01/14 07:54:24;;;;;;;60.50;31.85;;;;;;;-0.79;70.80;99997.81;1793636;78;21033;-82
2021/01/14 07:56:53;;;;;;;69.05;39.05;;;;;;;-0.77;70.85;100003.78;1792900;78;21447;-85
2021/01/14 07:59:33;;;;;;;67.10;37.15;;;;;;;-0.73;70.63;100005.41;1793608;78;21048;-82
2021/01/14 08:02:08;;;;;;;55.00;32.98;;;;;;;-0.75;70.65;100003.30;1811530;78;21522;-82
2021/01/14 08:04:48;;;;;;;60.65;35.13;;;;;;;-0.75;70.90;100000.28;1793693;78;22179;-80
2021/01/14 08:07:28;;;;;;;65.22;36.58;;;;;;;-0.67;71.04;99999.67;1825018;78;20946;-84
2021/01/14 08:09:56;;;;;;;67.80;36.08;;;;;;;-0.57;70.99;100001.57;1793535;78;21075;-80
2021/01/14 08:12:34;;;;;;;70.50;37.23;;;;;;;-0.49;70.56;100012.55;1825629;78;21128;-83
2021/01/14 08:15:04;;;;;;;47.13;28.17;;;;;;;-0.46;70.49;100012.90;1793932;78;20942;-83
2021/01/14 08:17:34;;;;;;;52.35;29.57;;;;;;;-0.39;70.22;100017.02;1792112;78;21189;-82
2021/01/14 08:20:03;;;;;;;52.03;31.97;;;;;;;-0.38;69.76;100021.72;1793520;78;20923;-82
2021/01/14 08:22:46;;;;;;;53.08;31.50;;;;;;;-0.39;69.87;100016.17;1825756;78;21013;-82
2021/01/14 08:25:18;;;;;;;52.67;31.57;;;;;;;-0.39;69.65;100013.59;1793499;78;20942;-84
2021/01/14 08:27:49;;;;;;;57.45;32.45;;;;;;;-0.42;69.73;100006.80;1767415;78;20953;-83
2021/01/14 08:30:20;;;;;;;57.62;30.45;;;;;;;-0.41;69.50;100011.05;1732383;78;22154;-87
2021/01/14 08:33:04;;;;;;;62.10;37.25;;;;;;;-0.47;69.40;100017.63;1741701;78;20974;-88
2021/01/14 08:35:38;;;;;;;63.13;34.33;;;;;;;-0.54;69.41;100018.67;1793939;78;21045;-87
2021/01/14 08:38:13;;;;;;;57.98;31.97;;;;;;;-0.66;69.39;100023.23;1768320;78;20982;-80
2021/01/14 08:40:43;;;;;;;50.45;30.12;;;;;;;-0.72;69.58;100020.80;1826178;78;20926;-85
2021/01/14 08:43:42;;;;;;;52.20;31.02;;;;;;;-0.68;69.78;100017.72;1829383;77;22419;-87
2021/01/14 08:46:10;;;;;;;50.48;30.72;;;;;;;-0.72;69.99;100013.52;1774196;78;21017;-87
2021/01/14 08:48:45;;;;;;;46.88;27.82;;;;;;;-0.72;69.88;100005.34;1721064;81;22928;-88
2021/01/14 08:51:19;;;;;;;45.65;28.73;;;;;;;-0.70;69.93;100010.47;1780692;78;20977;-81
2021/01/14 08:53:48;;;;;;;49.48;30.27;;;;;;;-0.70;70.08;99998.44;1720917;82;21022;-79
2021/01/14 08:56:19;;;;;;;51.18;30.00;;;;;;;-0.66;70.13;99996.20;1774572;78;21566;-80
2021/01/14 08:58:52;;;;;;;50.40;27.93;;;;;;;-0.59;70.17;100002.05;1706802;81;21015;-82
2021/01/14 09:01:25;;;;;;;45.90;28.77;;;;;;;-0.51;69.89;100001.84;1748742;80;21425;-80
2021/01/14 09:03:55;;;;;;;55.98;32.85;;;;;;;-0.52;69.46;99998.43;1753247;80;20991;-82
2021/01/14 09:06:43;;;;;;;63.55;37.05;;;;;;;-0.59;69.72;99997.34;1788740;78;20950;-82
2021/01/14 09:10:24;;;;;;;50.55;29.35;;;;;;;-0.59;70.03;99994.77;1852985;77;22017;-83
2021/01/14 09:12:54;;;;;;;58.35;34.33;;;;;;;-0.65;69.98;99993.17;1788914;78;21006;-81
2021/01/14 09:15:29;;;;;;;53.60;32.38;;;;;;;-0.68;69.96;99997.12;1738600;78;21763;-87
2021/01/14 09:18:03;;;;;;;56.60;32.20;;;;;;;-0.73;70.00;99995.11;1787081;78;21029;-79
2021/01/14 09:20:33;;;;;;;54.38;32.70;;;;;;;-0.78;70.22;99996.92;1788293;78;21467;-83
2021/01/14 09:23:21;;;;;;;58.08;35.00;;;;;;;-0.85;70.27;100002.20;1820219;78;21364;-83
2021/01/14 09:25:56;;;;;;;61.70;35.70;;;;;;;-0.90;70.52;100006.63;1819980;78;21010;-81
2021/01/14 09:28:27;;;;;;;61.65;35.05;;;;;;;-0.93;70.71;100000.72;1788268;78;22131;-84
2021/01/14 09:31:06;;;;;;;62.05;32.08;;;;;;;-0.93;70.78;99999.44;1787984;78;21516;-83
2021/01/14 09:33:43;;;;;;;56.33;33.38;;;;;;;-0.93;70.99;100002.01;1788337;78;20962;-84
2021/01/14 09:36:22;;;;;;;62.33;34.03;;;;;;;-0.90;70.95;100005.78;1786653;78;20982;-83
2021/01/14 09:38:56;;;;;;;70.92;37.50;;;;;;;-0.90;70.98;100008.36;1788726;78;21506;-84
2021/01/14 09:41:36;;;;;;;72.15;38.17;;;;;;;-0.92;71.07;100007.09;1787158;78;20996;-86
2021/01/14 09:44:13;;;;;;;70.30;38.05;;;;;;;-0.90;71.17;99996.78;1788401;78;20983;-84
2021/01/14 09:46:46;;;;;;;56.70;34.30;;;;;;;-0.87;71.16;99996.69;1786925;78;21002;-81
2021/01/14 09:49:19;;;;;;;60.33;35.98;;;;;;;-0.84;71.25;99994.91;1788439;78;20979;-82
2021/01/14 09:51:47;;;;;;;67.45;40.78;;;;;;;-0.79;71.36;99987.08;1789221;78;20954;-83
2021/01/14 09:54:17;;;;;;;63.00;36.35;;;;;;;-0.72;71.26;99989.06;1789657;78;21053;-85
2021/01/14 09:56:53;;;;;;;74.70;40.40;;;;;;;-0.67;71.16;99989.38;1791633;78;20966;-83
2021/01/14 09:59:42;;;;;;;68.05;37.80;;;;;;;-0.61;71.18;99983.66;1792045;78;21076;-84
2021/01/14 10:02:24;;;;;;;64.30;39.27;;;;;;;-0.50;71.09;99980.38;1818705;77;21064;-83
2021/01/14 10:04:59;;;;;;;66.55;38.65;;;;;;;-0.42;70.93;99970.73;1791193;78;21014;-85
2021/01/14 10:07:28;;;;;;;74.80;42.35;;;;;;;-0.32;70.77;99973.46;1791473;78;21177;-78
2021/01/14 10:10:05;;;;;;;67.95;40.00;;;;;;;-0.23;70.59;99977.08;1812854;78;21030;-79
2021/01/14 10:12:33;;;;;;;68.57;41.25;;;;;;;-0.16;70.47;99970.48;1783367;79;21002;-78
2021/01/14 10:15:13;;;;;;;74.77;43.70;;;;;;;-0.10;70.28;99965.18;1783778;79;21424;-79
2021/01/14 10:17:43;;;;;;;79.65;43.95;;;;;;;-0.07;70.18;99973.69;1782491;79;21096;-80
2021/01/14 10:20:12;;;;;;;91.00;48.98;;;;;;;-0.04;70.11;99974.04;1782133;79;21169;-79
2021/01/14 10:22:51;;;;;;;78.02;42.55;;;;;;;-0.03;70.24;99970.11;1781893;79;20979;-77
2021/01/14 10:25:21;;;;;;;66.75;40.00;;;;;;;0.04;70.04;99967.38;1781902;79;21023;-79
2021/01/14 10:28:11;;;;;;;64.10;37.88;;;;;;;0.05;69.79;99964.77;1781853;79;21089;-77
2021/01/14 10:30:58;;;;;;;53.17;33.73;;;;;;;0.02;69.59;99963.55;1727088;81;22098;-78
2021/01/14 10:33:26;;;;;;;55.08;33.38;;;;;;;-0.08;69.50;99958.25;1726998;81;21413;-80
2021/01/14 10:35:55;;;;;;;58.28;35.15;;;;;;;-0.18;69.53;99958.08;1726977;81;21045;-79
2021/01/14 10:38:26;;;;;;;55.83;33.38;;;;;;;-0.23;69.82;99954.34;1726889;81;21070;-80
2021/01/14 10:40:56;;;;;;;49.33;31.02;;;;;;;-0.23;70.09;99949.19;1725609;81;20978;-78
2021/01/14 10:43:35;;;;;;;57.27;35.80;;;;;;;-0.16;70.22;99950.71;1724657;81;20951;-78
2021/01/14 10:46:05;;;;;;;57.13;35.28;;;;;;;-0.10;70.10;99952.30;1726109;81;21748;-80
2021/01/14 10:48:39;;;;;;;58.70;36.03;;;;;;;-0.08;70.06;99939.77;1726760;81;21051;-81
2021/01/14 10:51:08;;;;;;;49.40;30.50;;;;;;;-0.03;70.09;99935.77;1726972;81;20958;-90
2021/01/14 10:53:41;;;;;;;63.28;35.78;;;;;;;0.01;69.93;99928.36;1726712;81;20923;-88
2021/01/14 10:56:12;;;;;;;55.05;33.90;;;;;;;0.00;70.00;99925.39;1728677;81;20931;-91
2021/01/14 10:58:43;;;;;;;52.53;30.05;;;;;;;0.04;69.92;99923.56;1730584;81;21608;-87
2021/01/14 11:01:21;;;;;;;49.25;31.68;;;;;;;0.02;69.85;99926.62;1729399;80;21030;-87
2021/01/14 11:03:53;;;;;;;56.02;33.75;;;;;;;0.02;69.97;99919.72;1730653;81;21268;-86
2021/01/14 11:06:30;;;;;;;49.88;30.50;;;;;;;0.10;69.94;99914.37;1730688;80;20991;-86
2021/01/14 11:09:02;;;;;;;54.33;29.15;;;;;;;0.18;69.69;99923.58;1731853;80;20896;-89
2021/01/14 11:11:30;;;;;;;46.73;28.50;;;;;;;0.21;69.66;99914.91;1721026;82;21143;-85
2021/01/14 11:14:02;;;;;;;55.73;31.35;;;;;;;0.23;69.55;99913.58;1738171;79;20943;-90
2021/01/14 11:16:31;;;;;;;51.55;31.10;;;;;;;0.24;69.40;99908.81;1751241;79;21061;-92
2021/01/14 11:19:03;;;;;;;59.10;30.92;;;;;;;0.25;69.53;99905.36;1720539;82;20963;-87
2021/01/14 11:21:42;;;;;;;40.25;25.62;;;;;;;0.26;69.58;99907.03;1737396;79;21460;-87
2021/01/14 11:24:30;;;;;;;50.10;28.15;;;;;;;0.25;69.30;99892.02;1720542;82;21979;-89
2021/01/14 11:26:57;;;;;;;52.00;29.35;;;;;;;0.30;69.39;99899.16;1763350;81;20943;-82
2021/01/14 11:29:32;;;;;;;43.83;26.95;;;;;;;0.31;69.53;99899.58;1749128;81;20919;-86
2021/01/14 11:32:01;;;;;;;45.95;29.65;;;;;;;0.35;69.26;99895.99;1718020;82;21067;-82
2021/01/14 11:34:31;;;;;;;47.17;30.95;;;;;;;0.32;69.00;99899.97;1734883;81;20962;-86
2021/01/14 11:37:02;;;;;;;47.85;30.17;;;;;;;0.32;69.17;99898.67;1718468;82;20983;-87
2021/01/14 11:39:30;;;;;;;45.23;28.15;;;;;;;0.34;69.21;99892.19;1735061;81;21036;-81
2021/01/14 11:42:02;;;;;;;51.08;29.95;;;;;;;0.38;69.35;99901.08;1718392;82;20958;-83